sensor_id;sensor_type;location;lat;lon;timestamp;pressure;altitude;pressure_sealevel;temperature;humidity
34243;BME280;20504;43.214;27.920;2023-03-14T00:00:28;100870.44;;;7.28;100.00
34243;BME280;20504;43.214;27.920;2023-03-14T00:02:53;100888.03;;;7.09;100.00
34243;BME280;20504;43.214;27.920;2023-03-14T00:05:19;100884.47;;;7.10;100.00
34243;BME280;20504;43.214;27.920;2023-03-14T00:07:44;100857.03;;;7.14;100.00
34243;BME280;20504;43.214;27.920;2023-03-14T00:10:11;100855.38;;;7.11;100.00
34243;BME280;20504;43.214;27.920;2023-03-14T00:12:37;100854.53;;;7.11;100.00
34243;BME280;20504;43.214;27.920;2023-03-14T00:15:02;100845.69;;;7.12;100.00
34243;BME280;20504;43.214;27.920;2023-03-14T00:17:29;100844.03;;;7.09;100.00
34243;BME280;20504;43.214;27.920;2023-03-14T00:19:55;100855.69;;;7.04;100.00
34243;BME280;20504;43.214;27.920;2023-03-14T00:22:20;100830.13;;;7.06;100.00
34243;BME280;20504;43.214;27.920;2023-03-14T00:24:46;100832.63;;;7.09;100.00
34243;BME280;20504;43.214;27.920;2023-03-14T00:27:11;100823.03;;;7.08;100.00
34243;BME280;20504;43.214;27.920;2023-03-14T00:29:36;100840.03;;;7.01;100.00
34243;BME280;20504;43.214;27.920;2023-03-14T00:32:02;100850.53;;;6.82;100.00
34243;BME280;20504;43.214;27.920;2023-03-14T00:34:30;100831.06;;;6.84;100.00
34243;BME280;20504;43.214;27.920;2023-03-14T00:36:56;100835.13;;;6.73;100.00
34243;BME280;20504;43.214;27.920;2023-03-14T00:39:21;100825.56;;;6.70;100.00
34243;BME280;20504;43.214;27.920;2023-03-14T00:41:46;100809.00;;;6.66;100.00
34243;BME280;20504;43.214;27.920;2023-03-14T00:44:12;100772.34;;;6.81;100.00
34243;BME280;20504;43.214;27.920;2023-03-14T00:46:37;100780.81;;;6.68;100.00
34243;BME280;20504;43.214;27.920;2023-03-14T00:49:03;100751.47;;;6.76;100.00
34243;BME280;20504;43.214;27.920;2023-03-14T00:51:28;100753.59;;;6.68;100.00
34243;BME280;20504;43.214;27.920;2023-03-14T00:53:53;100724.06;;;6.80;100.00
34243;BME280;20504;43.214;27.920;2023-03-14T00:56:19;100726.84;;;6.77;100.00
34243;BME280;20504;43.214;27.920;2023-03-14T00:58:44;100699.09;;;6.87;100.00
34243;BME280;20504;43.214;27.920;2023-03-14T01:01:11;100697.28;;;6.89;100.00
34243;BME280;20504;43.214;27.920;2023-03-14T01:03:37;100699.00;;;6.90;100.00
34243;BME280;20504;43.214;27.920;2023-03-14T01:06:08;100706.16;;;6.87;100.00
34243;BME280;20504;43.214;27.920;2023-03-14T01:08:34;100668.44;;;7.04;100.00
34243;BME280;20504;43.214;27.920;2023-03-14T01:11:00;100678.16;;;7.03;100.00
34243;BME280;20504;43.214;27.920;2023-03-14T01:13:29;100685.22;;;7.03;100.00
34243;BME280;20504;43.214;27.920;2023-03-14T01:15:54;100672.72;;;7.06;100.00
34243;BME280;20504;43.214;27.920;2023-03-14T01:18:20;100678.06;;;7.05;100.00
34243;BME280;20504;43.214;27.920;2023-03-14T01:20:45;100702.34;;;6.94;100.00
34243;BME280;20504;43.214;27.920;2023-03-14T01:23:10;100697.69;;;6.99;100.00
34243;BME280;20504;43.214;27.920;2023-03-14T01:25:40;100677.16;;;7.06;100.00
34243;BME280;20504;43.214;27.920;2023-03-14T01:28:05;100700.25;;;7.01;100.00
34243;BME280;20504;43.214;27.920;2023-03-14T01:30:30;100679.59;;;7.10;100.00
34243;BME280;20504;43.214;27.920;2023-03-14T01:32:56;100701.34;;;6.96;100.00
34243;BME280;20504;43.214;27.920;2023-03-14T01:35:21;100677.97;;;7.08;100.00
34243;BME280;20504;43.214;27.920;2023-03-14T01:37:46;100676.25;;;7.07;100.00
34243;BME280;20504;43.214;27.920;2023-03-14T01:40:12;100677.09;;;7.07;100.00
34243;BME280;20504;43.214;27.920;2023-03-14T01:42:44;100663.69;;;7.12;100.00
34243;BME280;20504;43.214;27.920;2023-03-14T01:47:53;100687.69;;;7.06;100.00
34243;BME280;20504;43.214;27.920;2023-03-14T01:50:19;100681.16;;;7.14;100.00
34243;BME280;20504;43.214;27.920;2023-03-14T01:52:45;100672.06;;;7.20;100.00
34243;BME280;20504;43.214;27.920;2023-03-14T01:55:17;100672.84;;;7.22;100.00
34243;BME280;20504;43.214;27.920;2023-03-14T01:57:45;100670.22;;;7.22;100.00
34243;BME280;20504;43.214;27.920;2023-03-14T02:00:12;100684.19;;;7.24;100.00
34243;BME280;20504;43.214;27.920;2023-03-14T02:02:45;100694.09;;;7.19;100.00
34243;BME280;20504;43.214;27.920;2023-03-14T02:05:12;100702.41;;;7.11;100.00
34243;BME280;20504;43.214;27.920;2023-03-14T02:07:48;100700.47;;;7.15;100.00
34243;BME280;20504;43.214;27.920;2023-03-14T02:10:15;100725.69;;;7.02;100.00
34243;BME280;20504;43.214;27.920;2023-03-14T02:12:41;100720.41;;;7.02;100.00
34243;BME280;20504;43.214;27.920;2023-03-14T02:15:06;100718.94;;;6.96;100.00
34243;BME280;20504;43.214;27.920;2023-03-14T02:17:32;100739.72;;;6.83;100.00
34243;BME280;20504;43.214;27.920;2023-03-14T02:20:03;100727.25;;;6.87;100.00
34243;BME280;20504;43.214;27.920;2023-03-14T02:22:33;100720.00;;;6.92;100.00
34243;BME280;20504;43.214;27.920;2023-03-14T02:27:25;100719.16;;;6.91;100.00
34243;BME280;20504;43.214;27.920;2023-03-14T02:29:52;100753.97;;;6.79;100.00
34243;BME280;20504;43.214;27.920;2023-03-14T02:32:19;100763.16;;;6.71;100.00
34243;BME280;20504;43.214;27.920;2023-03-14T02:34:45;100795.31;;;6.58;100.00
34243;BME280;20504;43.214;27.920;2023-03-14T02:37:12;100786.63;;;6.56;100.00
34243;BME280;20504;43.214;27.920;2023-03-14T02:39:40;100765.28;;;6.62;100.00
34243;BME280;20504;43.214;27.920;2023-03-14T02:42:07;100786.63;;;6.56;100.00
34243;BME280;20504;43.214;27.920;2023-03-14T02:44:33;100771.53;;;6.60;100.00
34243;BME280;20504;43.214;27.920;2023-03-14T02:47:00;100793.16;;;6.48;100.00
34243;BME280;20504;43.214;27.920;2023-03-14T02:49:25;100773.47;;;6.56;100.00
34243;BME280;20504;43.214;27.920;2023-03-14T02:51:53;100777.00;;;6.55;100.00
34243;BME280;20504;43.214;27.920;2023-03-14T02:54:18;100780.88;;;6.47;100.00
34243;BME280;20504;43.214;27.920;2023-03-14T02:56:44;100794.63;;;6.34;100.00
34243;BME280;20504;43.214;27.920;2023-03-14T02:59:10;100787.63;;;6.33;100.00
34243;BME280;20504;43.214;27.920;2023-03-14T03:01:35;100796.31;;;6.15;100.00
34243;BME280;20504;43.214;27.920;2023-03-14T03:04:00;100763.59;;;6.21;100.00
34243;BME280;20504;43.214;27.920;2023-03-14T03:06:25;100756.06;;;6.12;100.00
34243;BME280;20504;43.214;27.920;2023-03-14T03:08:51;100733.09;;;6.15;100.00
34243;BME280;20504;43.214;27.920;2023-03-14T03:11:17;100720.09;;;6.11;100.00
34243;BME280;20504;43.214;27.920;2023-03-14T03:13:42;100718.75;;;6.02;100.00
34243;BME280;20504;43.214;27.920;2023-03-14T03:16:07;100710.25;;;5.95;100.00
34243;BME280;20504;43.214;27.920;2023-03-14T03:18:33;100680.47;;;5.93;100.00
34243;BME280;20504;43.214;27.920;2023-03-14T03:21:02;100653.19;;;5.96;100.00
34243;BME280;20504;43.214;27.920;2023-03-14T03:23:28;100628.56;;;5.97;100.00
34243;BME280;20504;43.214;27.920;2023-03-14T03:25:53;100617.91;;;6.00;100.00
34243;BME280;20504;43.214;27.920;2023-03-14T03:28:19;100637.75;;;5.87;100.00
34243;BME280;20504;43.214;27.920;2023-03-14T03:30:44;100617.31;;;5.93;100.00
34243;BME280;20504;43.214;27.920;2023-03-14T03:33:10;100599.00;;;5.90;100.00
34243;BME280;20504;43.214;27.920;2023-03-14T03:35:41;100580.38;;;5.95;100.00
34243;BME280;20504;43.214;27.920;2023-03-14T03:38:06;100585.09;;;5.87;100.00
34243;BME280;20504;43.214;27.920;2023-03-14T03:40:32;100553.19;;;5.94;100.00
34243;BME280;20504;43.214;27.920;2023-03-14T03:42:57;100589.47;;;5.67;100.00
34243;BME280;20504;43.214;27.920;2023-03-14T03:45:22;100559.59;;;5.68;100.00
34243;BME280;20504;43.214;27.920;2023-03-14T03:47:48;100534.06;;;5.70;100.00
34243;BME280;20504;43.214;27.920;2023-03-14T03:50:13;100527.81;;;5.73;100.00
34243;BME280;20504;43.214;27.920;2023-03-14T03:52:38;100510.13;;;5.76;100.00
34243;BME280;20504;43.214;27.920;2023-03-14T03:55:04;100518.34;;;5.69;100.00
34243;BME280;20504;43.214;27.920;2023-03-14T03:57:29;100503.19;;;5.74;100.00
34243;BME280;20504;43.214;27.920;2023-03-14T03:59:54;100480.25;;;5.77;100.00
34243;BME280;20504;43.214;27.920;2023-03-14T04:02:20;100473.13;;;5.80;100.00
34243;BME280;20504;43.214;27.920;2023-03-14T04:04:45;100491.94;;;5.70;100.00
34243;BME280;20504;43.214;27.920;2023-03-14T04:07:10;100464.63;;;5.73;100.00
34243;BME280;20504;43.214;27.920;2023-03-14T04:09:38;100478.94;;;5.67;100.00
34243;BME280;20504;43.214;27.920;2023-03-14T04:12:04;100460.31;;;5.72;100.00
34243;BME280;20504;43.214;27.920;2023-03-14T04:14:29;100423.63;;;5.88;100.00
34243;BME280;20504;43.214;27.920;2023-03-14T04:16:55;100418.09;;;5.94;100.00
34243;BME280;20504;43.214;27.920;2023-03-14T04:19:20;100383.06;;;6.11;100.00
34243;BME280;20504;43.214;27.920;2023-03-14T04:21:45;100414.25;;;6.01;100.00
34243;BME280;20504;43.214;27.920;2023-03-14T04:24:12;100441.97;;;5.89;100.00
34243;BME280;20504;43.214;27.920;2023-03-14T04:26:37;100452.56;;;5.88;100.00
34243;BME280;20504;43.214;27.920;2023-03-14T04:29:02;100469.84;;;5.74;100.00
34243;BME280;20504;43.214;27.920;2023-03-14T04:31:27;100487.75;;;5.66;100.00
34243;BME280;20504;43.214;27.920;2023-03-14T04:33:53;100478.22;;;5.64;100.00
34243;BME280;20504;43.214;27.920;2023-03-14T04:36:18;100489.88;;;5.58;100.00
34243;BME280;20504;43.214;27.920;2023-03-14T04:38:44;100459.75;;;5.65;100.00
34243;BME280;20504;43.214;27.920;2023-03-14T04:41:09;100460.66;;;5.64;100.00
34243;BME280;20504;43.214;27.920;2023-03-14T04:43:34;100414.94;;;5.86;100.00
34243;BME280;20504;43.214;27.920;2023-03-14T04:46:00;100405.78;;;5.94;100.00
34243;BME280;20504;43.214;27.920;2023-03-14T04:48:25;100407.44;;;5.97;100.00
34243;BME280;20504;43.214;27.920;2023-03-14T04:50:51;100420.69;;;5.95;100.00
34243;BME280;20504;43.214;27.920;2023-03-14T04:53:16;100435.59;;;5.95;100.00
34243;BME280;20504;43.214;27.920;2023-03-14T04:55:42;100424.78;;;6.01;100.00
34243;BME280;20504;43.214;27.920;2023-03-14T04:58:07;100420.94;;;6.08;100.00
34243;BME280;20504;43.214;27.920;2023-03-14T05:00:33;100416.09;;;6.18;100.00
34243;BME280;20504;43.214;27.920;2023-03-14T05:02:58;100418.66;;;6.19;100.00
34243;BME280;20504;43.214;27.920;2023-03-14T05:05:24;100410.22;;;6.30;100.00
34243;BME280;20504;43.214;27.920;2023-03-14T05:07:49;100423.47;;;6.28;100.00
34243;BME280;20504;43.214;27.920;2023-03-14T05:10:14;100412.78;;;6.31;100.00
34243;BME280;20504;43.214;27.920;2023-03-14T05:12:40;100391.81;;;6.47;100.00
34243;BME280;20504;43.214;27.920;2023-03-14T05:15:05;100390.50;;;6.56;100.00
34243;BME280;20504;43.214;27.920;2023-03-14T05:17:32;100397.16;;;6.63;100.00
34243;BME280;20504;43.214;27.920;2023-03-14T05:19:57;100396.06;;;6.67;100.00
34243;BME280;20504;43.214;27.920;2023-03-14T05:22:23;100377.78;;;6.81;100.00
34243;BME280;20504;43.214;27.920;2023-03-14T05:24:48;100382.59;;;6.90;100.00
34243;BME280;20504;43.214;27.920;2023-03-14T05:27:13;100381.34;;;6.97;100.00
34243;BME280;20504;43.214;27.920;2023-03-14T05:29:39;100392.66;;;6.99;100.00
34243;BME280;20504;43.214;27.920;2023-03-14T05:32:04;100402.97;;;7.04;100.00
34243;BME280;20504;43.214;27.920;2023-03-14T05:34:29;100393.25;;;7.22;100.00
34243;BME280;20504;43.214;27.920;2023-03-14T05:36:55;100370.50;;;7.52;100.00
34243;BME280;20504;43.214;27.920;2023-03-14T05:39:21;100362.94;;;7.78;100.00
34243;BME280;20504;43.214;27.920;2023-03-14T05:41:46;100323.66;;;8.19;100.00
34243;BME280;20504;43.214;27.920;2023-03-14T05:44:12;100396.50;;;8.07;100.00
34243;BME280;20504;43.214;27.920;2023-03-14T05:46:37;100374.44;;;8.40;100.00
34243;BME280;20504;43.214;27.920;2023-03-14T05:49:02;100403.31;;;8.43;100.00
34243;BME280;20504;43.214;27.920;2023-03-14T05:51:27;100401.13;;;8.65;100.00
34243;BME280;20504;43.214;27.920;2023-03-14T05:53:53;100429.00;;;8.71;100.00
34243;BME280;20504;43.214;27.920;2023-03-14T05:56:19;100451.25;;;8.83;100.00
34243;BME280;20504;43.214;27.920;2023-03-14T05:58:44;100458.28;;;8.98;100.00
34243;BME280;20504;43.214;27.920;2023-03-14T06:01:09;100467.88;;;9.15;100.00
34243;BME280;20504;43.214;27.920;2023-03-14T06:03:35;100456.84;;;9.36;100.00
34243;BME280;20504;43.214;27.920;2023-03-14T06:06:00;100466.03;;;9.59;100.00
34243;BME280;20504;43.214;27.920;2023-03-14T06:08:25;100390.03;;;10.02;100.00
34243;BME280;20504;43.214;27.920;2023-03-14T06:10:52;100388.88;;;10.21;100.00
34243;BME280;20504;43.214;27.920;2023-03-14T06:13:17;100394.81;;;10.51;100.00
34243;BME280;20504;43.214;27.920;2023-03-14T06:15:42;100452.09;;;10.54;100.00
34243;BME280;20504;43.214;27.920;2023-03-14T06:18:08;100446.09;;;11.04;100.00
34243;BME280;20504;43.214;27.920;2023-03-14T06:20:35;100508.75;;;11.07;100.00
34243;BME280;20504;43.214;27.920;2023-03-14T06:23:00;100502.63;;;11.32;100.00
34243;BME280;20504;43.214;27.920;2023-03-14T06:25:26;100537.47;;;11.52;100.00
34243;BME280;20504;43.214;27.920;2023-03-14T06:27:51;100606.66;;;11.51;100.00
34243;BME280;20504;43.214;27.920;2023-03-14T06:30:16;100637.06;;;11.60;100.00
34243;BME280;20504;43.214;27.920;2023-03-14T06:32:42;100703.19;;;11.37;100.00
34243;BME280;20504;43.214;27.920;2023-03-14T06:35:07;100679.16;;;11.66;100.00
34243;BME280;20504;43.214;27.920;2023-03-14T06:37:33;100688.72;;;11.68;100.00
34243;BME280;20504;43.214;27.920;2023-03-14T06:39:59;100709.59;;;11.74;100.00
34243;BME280;20504;43.214;27.920;2023-03-14T06:42:24;100722.88;;;11.74;100.00
34243;BME280;20504;43.214;27.920;2023-03-14T06:44:49;100723.25;;;11.82;100.00
34243;BME280;20504;43.214;27.920;2023-03-14T06:47:15;100726.25;;;11.91;100.00
34243;BME280;20504;43.214;27.920;2023-03-14T06:49:40;100756.09;;;11.81;100.00
34243;BME280;20504;43.214;27.920;2023-03-14T06:52:05;100712.47;;;12.11;100.00
34243;BME280;20504;43.214;27.920;2023-03-14T06:54:31;100733.75;;;12.11;100.00
34243;BME280;20504;43.214;27.920;2023-03-14T06:56:56;100730.13;;;12.12;100.00
34243;BME280;20504;43.214;27.920;2023-03-14T06:59:21;100772.53;;;12.01;100.00
34243;BME280;20504;43.214;27.920;2023-03-14T07:01:46;100792.88;;;11.88;100.00
34243;BME280;20504;43.214;27.920;2023-03-14T07:04:13;100758.91;;;12.05;100.00
34243;BME280;20504;43.214;27.920;2023-03-14T07:06:38;100764.25;;;12.05;100.00
34243;BME280;20504;43.214;27.920;2023-03-14T07:09:04;100712.50;;;12.36;100.00
34243;BME280;20504;43.214;27.920;2023-03-14T07:11:30;100666.16;;;12.77;100.00
34243;BME280;20504;43.214;27.920;2023-03-14T07:13:55;100653.66;;;13.03;100.00
34243;BME280;20504;43.214;27.920;2023-03-14T07:16:21;100655.88;;;13.22;100.00
34243;BME280;20504;43.214;27.920;2023-03-14T07:18:46;100723.66;;;12.92;100.00
34243;BME280;20504;43.214;27.920;2023-03-14T07:21:11;100743.78;;;12.71;100.00
34243;BME280;20504;43.214;27.920;2023-03-14T07:23:37;100728.69;;;12.84;100.00
34243;BME280;20504;43.214;27.920;2023-03-14T07:26:02;100687.50;;;13.14;100.00
34243;BME280;20504;43.214;27.920;2023-03-14T07:28:28;100723.28;;;13.10;100.00
34243;BME280;20504;43.214;27.920;2023-03-14T07:30:53;100688.72;;;13.33;100.00
34243;BME280;20504;43.214;27.920;2023-03-14T07:33:19;100733.09;;;13.22;100.00
34243;BME280;20504;43.214;27.920;2023-03-14T07:35:46;100751.63;;;13.11;100.00
34243;BME280;20504;43.214;27.920;2023-03-14T07:38:11;100774.84;;;12.96;100.00
34243;BME280;20504;43.214;27.920;2023-03-14T07:40:37;100777.00;;;12.91;100.00
34243;BME280;20504;43.214;27.920;2023-03-14T07:43:02;100730.66;;;13.19;100.00
34243;BME280;20504;43.214;27.920;2023-03-14T07:45:27;100792.09;;;12.78;100.00
34243;BME280;20504;43.214;27.920;2023-03-14T07:47:52;100785.59;;;12.82;100.00
34243;BME280;20504;43.214;27.920;2023-03-14T07:50:22;100794.13;;;12.61;100.00
34243;BME280;20504;43.214;27.920;2023-03-14T07:52:47;100749.53;;;12.78;100.00
34243;BME280;20504;43.214;27.920;2023-03-14T07:55:12;100708.41;;;13.07;100.00
34243;BME280;20504;43.214;27.920;2023-03-14T07:57:38;100663.78;;;13.34;100.00
34243;BME280;20504;43.214;27.920;2023-03-14T08:00:04;100725.66;;;13.01;100.00
34243;BME280;20504;43.214;27.920;2023-03-14T08:02:30;100738.88;;;12.90;100.00
34243;BME280;20504;43.214;27.920;2023-03-14T08:04:55;100727.91;;;12.95;100.00
34243;BME280;20504;43.214;27.920;2023-03-14T08:07:20;100714.47;;;12.96;100.00
34243;BME280;20504;43.214;27.920;2023-03-14T08:09:46;100725.06;;;12.85;100.00
34243;BME280;20504;43.214;27.920;2023-03-14T08:12:11;100705.97;;;12.91;100.00
34243;BME280;20504;43.214;27.920;2023-03-14T08:14:36;100717.81;;;12.87;100.00
34243;BME280;20504;43.214;27.920;2023-03-14T08:17:02;100743.38;;;12.64;100.00
34243;BME280;20504;43.214;27.920;2023-03-14T08:19:27;100716.22;;;12.72;100.00
34243;BME280;20504;43.214;27.920;2023-03-14T08:21:52;100694.81;;;12.86;100.00
34243;BME280;20504;43.214;27.920;2023-03-14T08:24:18;100644.47;;;13.20;100.00
34243;BME280;20504;43.214;27.920;2023-03-14T08:26:43;100665.75;;;13.20;100.00
34243;BME280;20504;43.214;27.920;2023-03-14T08:29:08;100634.84;;;13.30;100.00
34243;BME280;20504;43.214;27.920;2023-03-14T08:31:34;100625.84;;;13.44;100.00
34243;BME280;20504;43.214;27.920;2023-03-14T08:34:00;100645.63;;;13.16;100.00
34243;BME280;20504;43.214;27.920;2023-03-14T08:36:25;100599.81;;;13.47;100.00
34243;BME280;20504;43.214;27.920;2023-03-14T08:38:51;100651.41;;;13.22;100.00
34243;BME280;20504;43.214;27.920;2023-03-14T08:41:16;100634.50;;;13.34;100.00
34243;BME280;20504;43.214;27.920;2023-03-14T08:43:41;100670.78;;;13.12;100.00
34243;BME280;20504;43.214;27.920;2023-03-14T08:46:06;100658.09;;;13.15;100.00
34243;BME280;20504;43.214;27.920;2023-03-14T08:48:32;100631.25;;;13.18;100.00
34243;BME280;20504;43.214;27.920;2023-03-14T08:51:03;100551.41;;;13.64;100.00
34243;BME280;20504;43.214;27.920;2023-03-14T08:53:29;100592.50;;;13.38;100.00
34243;BME280;20504;43.214;27.920;2023-03-14T08:55:54;100541.09;;;13.60;100.00
34243;BME280;20504;43.214;27.920;2023-03-14T08:58:19;100566.00;;;13.48;100.00
34243;BME280;20504;43.214;27.920;2023-03-14T09:00:45;100532.41;;;13.69;100.00
34243;BME280;20504;43.214;27.920;2023-03-14T09:03:10;100541.34;;;13.68;100.00
34243;BME280;20504;43.214;27.920;2023-03-14T09:05:35;100502.25;;;13.91;100.00
34243;BME280;20504;43.214;27.920;2023-03-14T09:08:01;100491.47;;;14.04;100.00
34243;BME280;20504;43.214;27.920;2023-03-14T09:10:26;100477.38;;;14.24;100.00
34243;BME280;20504;43.214;27.920;2023-03-14T09:12:52;100494.03;;;14.16;100.00
34243;BME280;20504;43.214;27.920;2023-03-14T09:15:17;100520.06;;;14.02;100.00
34243;BME280;20504;43.214;27.920;2023-03-14T09:17:43;100483.91;;;14.31;100.00
34243;BME280;20504;43.214;27.920;2023-03-14T09:20:09;100432.69;;;14.71;100.00
34243;BME280;20504;43.214;27.920;2023-03-14T09:22:34;100419.94;;;14.95;100.00
34243;BME280;20504;43.214;27.920;2023-03-14T09:25:01;100453.13;;;14.81;100.00
34243;BME280;20504;43.214;27.920;2023-03-14T09:27:26;100473.19;;;14.76;100.00
34243;BME280;20504;43.214;27.920;2023-03-14T09:29:51;100515.31;;;14.50;100.00
34243;BME280;20504;43.214;27.920;2023-03-14T09:32:17;100521.41;;;14.52;100.00
34243;BME280;20504;43.214;27.920;2023-03-14T09:34:42;100529.50;;;14.39;100.00
34243;BME280;20504;43.214;27.920;2023-03-14T09:37:07;100483.88;;;14.65;100.00
34243;BME280;20504;43.214;27.920;2023-03-14T09:39:33;100464.44;;;14.74;100.00
34243;BME280;20504;43.214;27.920;2023-03-14T09:41:58;100481.56;;;14.71;100.00
34243;BME280;20504;43.214;27.920;2023-03-14T09:44:28;100476.56;;;14.78;100.00
34243;BME280;20504;43.214;27.920;2023-03-14T09:46:54;100464.78;;;14.80;100.00
34243;BME280;20504;43.214;27.920;2023-03-14T09:49:32;100492.72;;;14.76;100.00
34243;BME280;20504;43.214;27.920;2023-03-14T09:51:59;100488.81;;;14.80;100.00
34243;BME280;20504;43.214;27.920;2023-03-14T09:54:45;100450.81;;;15.09;100.00
34243;BME280;20504;43.214;27.920;2023-03-14T09:57:16;100444.09;;;15.35;100.00
34243;BME280;20504;43.214;27.920;2023-03-14T09:59:44;100422.56;;;15.58;100.00
34243;BME280;20504;43.214;27.920;2023-03-14T10:02:19;100446.19;;;15.53;100.00
34243;BME280;20504;43.214;27.920;2023-03-14T10:04:46;100489.34;;;15.27;100.00
34243;BME280;20504;43.214;27.920;2023-03-14T10:07:15;100458.63;;;15.42;100.00
34243;BME280;20504;43.214;27.920;2023-03-14T10:09:43;100458.38;;;15.45;100.00
34243;BME280;20504;43.214;27.920;2023-03-14T10:12:08;100456.94;;;15.41;100.00
34243;BME280;20504;43.214;27.920;2023-03-14T10:14:35;100426.72;;;15.62;100.00
34243;BME280;20504;43.214;27.920;2023-03-14T10:17:08;100426.59;;;15.63;100.00
34243;BME280;20504;43.214;27.920;2023-03-14T10:19:35;100424.75;;;15.64;100.00
34243;BME280;20504;43.214;27.920;2023-03-14T10:22:01;100403.31;;;15.85;100.00
34243;BME280;20504;43.214;27.920;2023-03-14T10:24:28;100364.78;;;16.16;100.00
34243;BME280;20504;43.214;27.920;2023-03-14T10:27:01;100492.66;;;15.40;100.00
34243;BME280;20504;43.214;27.920;2023-03-14T10:29:27;100446.84;;;15.66;100.00
34243;BME280;20504;43.214;27.920;2023-03-14T10:34:23;100368.31;;;16.17;100.00
34243;BME280;20504;43.214;27.920;2023-03-14T10:36:52;100455.00;;;15.64;100.00
34243;BME280;20504;43.214;27.920;2023-03-14T10:41:46;100475.28;;;15.25;100.00
34243;BME280;20504;43.214;27.920;2023-03-14T10:44:12;100453.94;;;15.35;100.00
34243;BME280;20504;43.214;27.920;2023-03-14T10:46:37;100442.84;;;15.39;100.00
34243;BME280;20504;43.214;27.920;2023-03-14T10:49:04;100498.63;;;14.91;100.00
34243;BME280;20504;43.214;27.920;2023-03-14T10:51:30;100394.81;;;15.49;100.00
34243;BME280;20504;43.214;27.920;2023-03-14T10:54:19;100402.00;;;15.49;100.00
34243;BME280;20504;43.214;27.920;2023-03-14T10:56:45;100435.38;;;15.33;100.00
34243;BME280;20504;43.214;27.920;2023-03-14T10:59:20;100416.13;;;15.39;100.00
34243;BME280;20504;43.214;27.920;2023-03-14T11:01:58;100401.56;;;15.43;100.00
34243;BME280;20504;43.214;27.920;2023-03-14T11:07:07;100344.19;;;15.88;100.00
34243;BME280;20504;43.214;27.920;2023-03-14T11:09:45;100343.63;;;15.94;100.00
34243;BME280;20504;43.214;27.920;2023-03-14T11:15:01;100297.34;;;16.32;100.00
34243;BME280;20504;43.214;27.920;2023-03-14T11:17:51;100298.91;;;16.34;100.00
34243;BME280;20504;43.214;27.920;2023-03-14T11:20:31;100258.47;;;16.67;100.00
34243;BME280;20504;43.214;27.920;2023-03-14T11:31:03;100152.56;;;17.37;100.00
34243;BME280;20504;43.214;27.920;2023-03-14T11:38:24;100242.94;;;16.80;100.00
34243;BME280;20504;43.214;27.920;2023-03-14T11:40:53;100170.06;;;17.13;100.00
34243;BME280;20504;43.214;27.920;2023-03-14T11:43:23;100203.56;;;16.90;100.00
34243;BME280;20504;43.214;27.920;2023-03-14T11:45:52;100151.03;;;17.34;100.00
34243;BME280;20504;43.214;27.920;2023-03-14T11:50:45;100186.44;;;17.28;100.00
34243;BME280;20504;43.214;27.920;2023-03-14T11:53:14;100149.25;;;17.43;100.00
34243;BME280;20504;43.214;27.920;2023-03-14T11:55:42;100182.84;;;17.19;100.00
34243;BME280;20504;43.214;27.920;2023-03-14T11:58:18;100166.75;;;17.19;100.00
34243;BME280;20504;43.214;27.920;2023-03-14T12:00:44;100133.19;;;17.43;100.00
34243;BME280;20504;43.214;27.920;2023-03-14T12:03:32;100135.28;;;17.49;100.00
34243;BME280;20504;43.214;27.920;2023-03-14T12:13:50;100008.47;;;18.34;100.00
34243;BME280;20504;43.214;27.920;2023-03-14T12:18:47;99915.84;;;19.05;100.00
34243;BME280;20504;43.214;27.920;2023-03-14T12:21:13;99846.88;;;19.53;100.00
34243;BME280;20504;43.214;27.920;2023-03-14T12:23:54;99829.00;;;19.76;100.00
34243;BME280;20504;43.214;27.920;2023-03-14T12:26:21;99837.94;;;19.69;100.00
34243;BME280;20504;43.214;27.920;2023-03-14T12:28:51;99779.44;;;20.24;100.00
34243;BME280;20504;43.214;27.920;2023-03-14T12:34:02;99695.47;;;20.81;100.00
34243;BME280;20504;43.214;27.920;2023-03-14T12:41:46;99648.25;;;21.15;100.00
34243;BME280;20504;43.214;27.920;2023-03-14T12:46:53;99467.38;;;22.43;100.00
34243;BME280;20504;43.214;27.920;2023-03-14T12:49:18;99495.00;;;22.45;100.00
34243;BME280;20504;43.214;27.920;2023-03-14T12:51:44;99454.22;;;22.81;100.00
34243;BME280;20504;43.214;27.920;2023-03-14T12:54:25;99494.88;;;22.53;100.00
34243;BME280;20504;43.214;27.920;2023-03-14T12:59:35;99413.13;;;23.12;100.00
34243;BME280;20504;43.214;27.920;2023-03-14T13:07:35;99418.72;;;22.98;100.00
34243;BME280;20504;43.214;27.920;2023-03-14T13:10:09;99434.28;;;22.82;100.00
34243;BME280;20504;43.214;27.920;2023-03-14T13:15:20;99329.47;;;23.57;100.00
34243;BME280;20504;43.214;27.920;2023-03-14T13:17:47;99337.38;;;23.65;100.00
34243;BME280;20504;43.214;27.920;2023-03-14T13:20:18;99312.16;;;23.71;100.00
34243;BME280;20504;43.214;27.920;2023-03-14T13:22:46;99299.22;;;23.86;100.00
34243;BME280;20504;43.214;27.920;2023-03-14T13:25:12;99256.97;;;24.17;100.00
34243;BME280;20504;43.214;27.920;2023-03-14T13:27:37;99281.66;;;23.96;100.00
34243;BME280;20504;43.214;27.920;2023-03-14T13:32:41;99403.56;;;23.16;100.00
34243;BME280;20504;43.214;27.920;2023-03-14T13:35:29;99313.00;;;23.72;100.00
34243;BME280;20504;43.214;27.920;2023-03-14T13:37:59;99190.72;;;24.51;100.00